Saint Petersburg Beach, Florida
Current Conditions -  °F | °C
As of 2:53 AM on Thursday 27 Nov 2014 (Local Time) from KSPG Reporting Station
Clear Clear  
Wind Chill: 13°   Ceiling: Unl
Heat Index: 13°   Visibility: 10mi
Dew Point:   Wind: 3mph
Humidity: 62%   Direction: 340°NNW
Pressure: 30.25"   Gusts: NA
Location:  27.7254°N, 82.7422°W
Report Text: KSPG 270753Z AUTO 34003KT 10SM CLR 13/06 A3025 RMK AO2 SLP241 T01330061
Loading
Personal Weather Stations






























Interactive Weather Map New forecast layout! Learn more

10-Day Weather Forecast

Advertisements
Track Severe Weather on mobile